Time;durP1;ratioP1;P1;durP2;ratioP2;P2;SDS_P1;SDS_P2;PMS_P1;PMS_P2;Temp;Humidity;BMP_temperature;BMP_pressure;BME280_temperature;BME280_humidity;BME280_pressure;Samples;Min_cycle;Max_cycle;Signal;HPM_P1;HPM_P2
2022/07/05 00:00:55;;;;;;;1.98;1.52;;;25.20;63.60;;;;;;5114449;28;20388;-70
2022/07/05 00:03:21;;;;;;;1.30;1.10;;;25.20;63.60;;;;;;5114573;28;20384;-70
2022/07/05 00:05:46;;;;;;;1.60;1.50;;;25.20;63.60;;;;;;5114227;28;20399;-65
2022/07/05 00:08:12;;;;;;;1.65;1.30;;;25.10;63.50;;;;;;5114145;28;20391;-69
2022/07/05 00:10:38;;;;;;;1.80;1.40;;;25.20;63.60;;;;;;5114319;28;20737;-69
2022/07/05 00:13:05;;;;;;;1.80;1.50;;;25.10;63.50;;;;;;5113399;28;20392;-70
2022/07/05 00:15:31;;;;;;;2.10;1.40;;;25.10;63.50;;;;;;5114104;28;20915;-68
2022/07/05 00:17:57;;;;;;;1.95;1.30;;;25.10;63.50;;;;;;5113692;28;20423;-67
2022/07/05 00:20:23;;;;;;;1.43;1.20;;;25.10;63.50;;;;;;5114036;28;20385;-70
2022/07/05 00:22:48;;;;;;;1.92;1.25;;;25.10;63.50;;;;;;5114225;28;20437;-63
2022/07/05 00:25:14;;;;;;;1.80;1.30;;;25.10;63.50;;;;;;5114096;28;20389;-69
2022/07/05 00:27:41;;;;;;;3.22;1.40;;;25.10;63.50;;;;;;5114043;28;20431;-67
2022/07/05 00:30:07;;;;;;;1.45;1.13;;;25.10;63.50;;;;;;5113521;28;20384;-64
2022/07/05 00:32:33;;;;;;;1.83;1.30;;;25.10;63.50;;;;;;5113794;28;20393;-63
2022/07/05 00:34:59;;;;;;;1.75;1.20;;;25.10;63.50;;;;;;5112565;28;20384;-67
2022/07/05 00:37:25;;;;;;;1.90;1.37;;;25.10;63.50;;;;;;5113806;28;20401;-70
2022/07/05 00:39:51;;;;;;;1.70;1.60;;;25.10;63.50;;;;;;5113548;28;20400;-68
2022/07/05 00:42:16;;;;;;;1.70;1.30;;;25.10;63.50;;;;;;5113545;28;20372;-69
2022/07/05 00:44:42;;;;;;;1.57;1.33;;;25.10;63.50;;;;;;5113623;28;20480;-65
2022/07/05 00:47:12;;;;;;;1.50;1.40;;;25.10;63.50;;;;;;5113567;28;20753;-70
2022/07/05 00:49:39;;;;;;;1.50;1.20;;;25.10;63.50;;;;;;5113488;28;20522;-69
2022/07/05 00:52:05;;;;;;;1.80;1.33;;;25.10;63.50;;;;;;5113201;27;20437;-64
2022/07/05 00:54:34;;;;;;;1.40;1.30;;;25.10;63.50;;;;;;5113485;28;20384;-64
2022/07/05 00:57:00;;;;;;;2.07;1.50;;;25.10;63.50;;;;;;5112047;28;20454;-64
2022/07/05 00:59:27;;;;;;;1.60;1.40;;;25.10;63.50;;;;;;5113227;28;20394;-70
2022/07/05 01:01:53;;;;;;;1.67;1.27;;;25.10;63.50;;;;;;5112736;28;20467;-64
2022/07/05 01:04:19;;;;;;;1.92;1.42;;;25.10;63.50;;;;;;5113053;28;20544;-65
2022/07/05 01:06:47;;;;;;;1.58;1.48;;;25.10;63.50;;;;;;5113274;28;20399;-69
2022/07/05 01:09:16;;;;;;;1.80;1.60;;;25.10;63.50;;;;;;5113233;27;20472;-69
2022/07/05 01:11:46;;;;;;;2.35;1.55;;;25.10;63.50;;;;;;5111862;28;20461;-63
2022/07/05 01:14:23;;;;;;;1.88;1.15;;;25.00;63.40;;;;;;5112596;28;20468;-64
2022/07/05 01:16:49;;;;;;;2.70;1.35;;;25.00;63.40;;;;;;5112935;28;20385;-67
2022/07/05 01:19:17;;;;;;;1.52;1.30;;;25.10;63.60;;;;;;5112900;28;20384;-64
2022/07/05 01:21:44;;;;;;;1.70;1.25;;;25.00;63.40;;;;;;5112808;28;20889;-70
2022/07/05 01:24:15;;;;;;;1.40;1.20;;;25.00;63.40;;;;;;5112210;28;21068;-64
2022/07/05 01:26:44;;;;;;;2.10;1.30;;;25.00;63.40;;;;;;5112760;28;20373;-64
2022/07/05 01:29:10;;;;;;;1.83;1.35;;;25.00;63.40;;;;;;5112900;28;20479;-64
2022/07/05 01:31:39;;;;;;;1.60;1.10;;;25.00;63.40;;;;;;5112612;28;20476;-70
2022/07/05 01:34:06;;;;;;;1.70;1.10;;;25.00;63.40;;;;;;5112175;28;20420;-70
2022/07/05 01:36:33;;;;;;;1.52;1.42;;;25.00;63.40;;;;;;5112828;28;20735;-70
2022/07/05 01:39:00;;;;;;;1.60;1.40;;;25.00;63.40;;;;;;5112627;28;20392;-65
2022/07/05 01:41:26;;;;;;;1.90;1.52;;;25.00;63.40;;;;;;5112535;27;20384;-69
2022/07/05 01:43:51;;;;;;;1.53;1.43;;;25.00;63.40;;;;;;5111110;28;20765;-69
2022/07/05 01:46:21;;;;;;;1.73;1.25;;;25.00;63.40;;;;;;5112317;28;20801;-70
2022/07/05 01:48:50;;;;;;;1.70;1.20;;;25.00;63.40;;;;;;5112455;28;20388;-69
2022/07/05 01:51:22;;;;;;;1.47;1.37;;;25.00;63.40;;;;;;5112541;28;20377;-70
2022/07/05 01:53:52;;;;;;;1.80;1.40;;;25.00;63.40;;;;;;5112402;27;20392;-70
2022/07/05 01:56:18;;;;;;;1.88;1.27;;;25.00;63.40;;;;;;5111926;28;20388;-70
2022/07/05 01:58:45;;;;;;;1.77;1.27;;;25.00;63.30;;;;;;5111588;28;20412;-70
2022/07/05 02:01:11;;;;;;;1.20;1.00;;;25.00;63.40;;;;;;5112051;28;20441;-66
2022/07/05 02:03:37;;;;;;;1.55;0.95;;;25.00;63.30;;;;;;5111924;28;20750;-70
2022/07/05 02:06:03;;;;;;;1.40;1.00;;;25.00;63.30;;;;;;5111183;28;20392;-69
2022/07/05 02:08:30;;;;;;;3.17;1.20;;;25.00;63.40;;;;;;5111704;28;20921;-69
2022/07/05 02:10:56;;;;;;;1.33;1.08;;;25.00;63.40;;;;;;5111690;28;20465;-68
2022/07/05 02:13:22;;;;;;;1.65;1.20;;;24.90;63.30;;;;;;5112087;28;20412;-66
2022/07/05 02:15:47;;;;;;;1.35;1.10;;;25.00;63.30;;;;;;5112008;28;20791;-66
2022/07/05 02:18:13;;;;;;;1.83;1.37;;;24.90;63.30;;;;;;5111498;28;20415;-68
2022/07/05 02:20:40;;;;;;;1.80;1.33;;;24.90;63.20;;;;;;5111896;28;20387;-70
2022/07/05 02:23:06;;;;;;;1.60;1.30;;;25.00;63.30;;;;;;5111904;28;20877;-64
2022/07/05 02:25:33;;;;;;;1.52;1.33;;;24.90;63.20;;;;;;5111910;28;20387;-70
2022/07/05 02:27:59;;;;;;;1.80;1.30;;;24.90;63.30;;;;;;5111419;28;20453;-64
2022/07/05 02:30:24;;;;;;;2.40;1.40;;;24.90;63.20;;;;;;5111747;28;20384;-69
2022/07/05 02:32:50;;;;;;;1.57;1.40;;;24.90;63.30;;;;;;5111822;28;20742;-66
2022/07/05 02:35:16;;;;;;;1.92;1.38;;;24.90;63.20;;;;;;5112451;28;20789;-65
2022/07/05 02:37:41;;;;;;;1.67;1.30;;;24.90;63.20;;;;;;5114708;28;20420;-67
2022/07/05 02:40:10;;;;;;;2.20;1.40;;;24.90;63.30;;;;;;5115481;28;20754;-67
2022/07/05 02:42:36;;;;;;;1.40;1.25;;;24.90;63.20;;;;;;5116054;28;20396;-64
2022/07/05 02:45:01;;;;;;;1.42;1.33;;;24.90;63.20;;;;;;5115734;28;20377;-63
2022/07/05 02:47:30;;;;;;;1.40;1.30;;;24.90;63.30;;;;;;5115886;28;20738;-65
2022/07/05 02:49:57;;;;;;;1.50;1.20;;;24.90;63.20;;;;;;5114474;28;20399;-64
2022/07/05 02:52:23;;;;;;;1.70;1.20;;;24.90;63.20;;;;;;5115810;27;20391;-67
2022/07/05 02:54:49;;;;;;;1.60;1.20;;;24.90;63.20;;;;;;5115797;28;20388;-63
2022/07/05 02:57:14;;;;;;;1.45;1.10;;;24.90;63.20;;;;;;5115805;28;20408;-64
2022/07/05 02:59:40;;;;;;;1.40;1.17;;;24.90;63.20;;;;;;5115581;28;20384;-63
2022/07/05 03:02:05;;;;;;;1.60;1.20;;;24.90;63.20;;;;;;5115182;28;21015;-69
2022/07/05 03:04:31;;;;;;;1.58;1.20;;;24.90;63.20;;;;;;5115672;28;20396;-64
2022/07/05 03:06:57;;;;;;;1.80;1.30;;;24.80;63.30;;;;;;5115477;28;20401;-65
2022/07/05 03:09:22;;;;;;;2.00;1.50;;;24.90;63.30;;;;;;5115530;28;20416;-69
2022/07/05 03:11:48;;;;;;;3.10;1.33;;;24.80;64.60;;;;;;5115400;28;20461;-69
2022/07/05 03:14:13;;;;;;;2.10;1.52;;;24.90;64.40;;;;;;5114984;28;20400;-70
2022/07/05 03:16:39;;;;;;;2.97;1.57;;;24.90;64.80;;;;;;5115261;28;20383;-69
2022/07/05 03:19:05;;;;;;;3.77;1.77;;;24.90;64.80;;;;;;5115817;28;20407;-69
2022/07/05 03:21:30;;;;;;;2.17;1.50;;;25.00;66.70;;;;;;5115376;28;20372;-66
2022/07/05 03:23:56;;;;;;;6.50;1.77;;;25.00;66.80;;;;;;5116250;28;20393;-66
2022/07/05 03:26:21;;;;;;;5.50;1.60;;;25.10;66.70;;;;;;5115337;28;20463;-66
2022/07/05 03:28:47;;;;;;;4.97;1.58;;;25.10;66.60;;;;;;5114597;28;20789;-64
2022/07/05 03:31:13;;;;;;;5.20;1.50;;;25.10;67.00;;;;;;5114912;28;20442;-68
2022/07/05 03:33:38;;;;;;;3.20;1.70;;;25.20;67.70;;;;;;5114846;28;20388;-67
2022/07/05 03:36:04;;;;;;;2.58;1.50;;;25.20;67.90;;;;;;5114187;28;20393;-69
2022/07/05 03:38:30;;;;;;;3.78;1.40;;;25.20;67.70;;;;;;5112831;28;20933;-69
2022/07/05 03:40:55;;;;;;;7.03;1.53;;;25.20;67.40;;;;;;5114702;28;20384;-70
2022/07/05 03:43:21;;;;;;;3.47;1.55;;;25.20;68.00;;;;;;5114587;28;20861;-64
2022/07/05 03:45:46;;;;;;;2.70;1.58;;;25.20;67.90;;;;;;5114189;28;20415;-64
2022/07/05 03:48:12;;;;;;;3.00;1.40;;;25.30;67.90;;;;;;5113622;28;20388;-69
2022/07/05 03:50:38;;;;;;;2.83;1.43;;;25.30;68.20;;;;;;5114463;28;20388;-64
2022/07/05 03:53:03;;;;;;;3.42;1.50;;;25.30;68.40;;;;;;5112786;28;20393;-64
2022/07/05 03:55:29;;;;;;;3.27;1.60;;;25.30;68.50;;;;;;5114260;28;20517;-65
2022/07/05 03:57:54;;;;;;;6.40;1.50;;;25.30;67.30;;;;;;5114343;28;20426;-68
2022/07/05 04:00:20;;;;;;;4.15;1.40;;;25.20;67.20;;;;;;5113443;28;21181;-64
2022/07/05 04:02:46;;;;;;;4.78;1.42;;;25.20;66.70;;;;;;5114061;28;20380;-64
2022/07/05 04:05:11;;;;;;;3.77;1.40;;;25.20;66.70;;;;;;5114119;28;20408;-64
2022/07/05 04:07:55;;;;;;;4.72;1.80;;;25.20;66.60;;;;;;5114250;28;20390;-67
2022/07/05 04:10:21;;;;;;;6.00;1.60;;;25.10;66.40;;;;;;5113860;28;20397;-68
2022/07/05 04:12:47;;;;;;;6.32;2.10;;;25.10;66.00;;;;;;5114246;28;20384;-65
2022/07/05 04:15:14;;;;;;;5.38;1.70;;;25.10;65.50;;;;;;5114137;28;20480;-70
2022/07/05 04:17:50;;;;;;;6.80;1.90;;;25.10;65.60;;;;;;5114069;28;20412;-64
2022/07/05 04:20:16;;;;;;;4.75;1.88;;;25.10;65.50;;;;;;5113716;28;20384;-70
2022/07/05 04:22:42;;;;;;;4.33;1.83;;;25.00;64.90;;;;;;5114125;28;20440;-69
2022/07/05 04:25:17;;;;;;;3.38;1.88;;;25.00;65.10;;;;;;5112827;28;20392;-69
2022/07/05 04:27:50;;;;;;;3.50;1.70;;;25.00;64.90;;;;;;5113802;28;20419;-70
2022/07/05 04:30:18;;;;;;;3.05;1.70;;;25.00;64.80;;;;;;5113512;28;20862;-67
2022/07/05 04:32:44;;;;;;;3.97;1.50;;;25.00;64.80;;;;;;5114307;28;20389;-64
2022/07/05 04:35:11;;;;;;;3.78;1.45;;;25.00;64.80;;;;;;5112968;28;20742;-65
2022/07/05 04:37:37;;;;;;;2.67;1.60;;;25.00;64.60;;;;;;5113861;28;20416;-70
2022/07/05 04:40:04;;;;;;;3.10;1.67;;;25.00;64.40;;;;;;5113514;28;20529;-65
2022/07/05 04:42:30;;;;;;;1.98;1.50;;;24.90;64.30;;;;;;5113715;28;20874;-64
2022/07/05 04:44:56;;;;;;;1.95;1.50;;;24.90;64.10;;;;;;5113743;28;20396;-67
2022/07/05 04:47:21;;;;;;;3.63;1.40;;;24.90;64.20;;;;;;5113691;28;20745;-68
2022/07/05 04:49:47;;;;;;;2.95;1.40;;;24.90;64.20;;;;;;5113549;28;20874;-69
2022/07/05 04:52:12;;;;;;;6.17;1.70;;;24.80;64.30;;;;;;5111853;28;20448;-64
2022/07/05 04:54:38;;;;;;;4.97;1.70;;;24.80;64.50;;;;;;5113228;28;20391;-64
2022/07/05 04:57:04;;;;;;;4.60;1.88;;;24.80;65.60;;;;;;5113164;28;20400;-68
2022/07/05 04:59:30;;;;;;;4.83;1.90;;;24.80;65.80;;;;;;5114732;27;20412;-64
2022/07/05 05:01:56;;;;;;;4.50;1.70;;;24.80;64.40;;;;;;5111497;28;20866;-64
2022/07/05 05:04:21;;;;;;;4.70;1.80;;;24.80;64.30;;;;;;5112389;28;20842;-66
2022/07/05 05:06:47;;;;;;;4.25;1.65;;;24.80;64.90;;;;;;5113139;28;20724;-64
2022/07/05 05:09:13;;;;;;;4.03;1.83;;;24.80;64.50;;;;;;5112721;28;20392;-64
2022/07/05 05:11:38;;;;;;;2.85;1.73;;;24.80;64.50;;;;;;5112611;28;20788;-64
2022/07/05 05:14:04;;;;;;;5.28;2.00;;;24.80;64.30;;;;;;5112349;28;20387;-64
2022/07/05 05:16:30;;;;;;;5.00;1.90;;;24.80;64.90;;;;;;5112611;28;20388;-65
2022/07/05 05:18:56;;;;;;;4.70;1.95;;;24.80;64.60;;;;;;5111500;28;20434;-64
2022/07/05 05:21:21;;;;;;;7.25;2.10;;;24.80;65.00;;;;;;5112721;28;20388;-64
2022/07/05 05:23:47;;;;;;;5.07;1.90;;;24.80;64.70;;;;;;5112541;28;20391;-64
2022/07/05 05:26:12;;;;;;;5.00;1.80;;;24.80;64.70;;;;;;5112143;28;20463;-64
2022/07/05 05:28:38;;;;;;;5.23;1.90;;;24.80;64.70;;;;;;5112667;28;20381;-65
2022/07/05 05:31:04;;;;;;;7.47;2.30;;;24.80;64.60;;;;;;5112529;28;20387;-68
2022/07/05 05:33:30;;;;;;;5.13;2.10;;;24.80;64.70;;;;;;5112354;28;20783;-64
2022/07/05 05:35:56;;;;;;;4.85;1.98;;;24.80;64.50;;;;;;5112500;28;20445;-69
2022/07/05 05:38:22;;;;;;;5.87;2.00;;;24.80;64.60;;;;;;5111695;28;20412;-69
2022/07/05 05:40:47;;;;;;;5.78;2.10;;;24.80;64.80;;;;;;5112483;28;20463;-69
2022/07/05 05:43:13;;;;;;;4.57;2.20;;;24.80;64.60;;;;;;5112326;28;20872;-64
2022/07/05 05:45:39;;;;;;;4.95;2.00;;;24.80;64.60;;;;;;5112135;28;20896;-64
2022/07/05 05:48:05;;;;;;;4.67;2.30;;;24.80;64.70;;;;;;5111983;28;20564;-69
2022/07/05 05:50:36;;;;;;;3.97;2.00;;;24.80;64.60;;;;;;5112255;28;20376;-64
2022/07/05 05:53:02;;;;;;;5.53;2.40;;;24.80;64.50;;;;;;5111453;28;20400;-69
2022/07/05 05:55:30;;;;;;;5.43;2.30;;;24.80;64.30;;;;;;5111549;28;20459;-65
2022/07/05 05:57:57;;;;;;;5.80;2.17;;;24.80;64.90;;;;;;5111675;28;20449;-65
2022/07/05 06:00:23;;;;;;;4.57;2.10;;;24.80;64.20;;;;;;5110783;28;20846;-68
2022/07/05 06:02:50;;;;;;;5.95;2.00;;;24.70;64.00;;;;;;5111948;28;20396;-64
2022/07/05 06:05:17;;;;;;;5.93;2.20;;;24.80;63.90;;;;;;5111668;28;20403;-64
2022/07/05 06:07:54;;;;;;;4.88;1.83;;;24.70;64.00;;;;;;5111850;28;20388;-65
2022/07/05 06:10:26;;;;;;;3.50;1.88;;;24.70;63.90;;;;;;5111172;28;20407;-67
2022/07/05 06:12:53;;;;;;;5.32;1.88;;;24.70;64.00;;;;;;5111162;28;20388;-69
2022/07/05 06:15:20;;;;;;;5.83;1.80;;;24.70;64.10;;;;;;5111783;28;20387;-70
2022/07/05 06:17:46;;;;;;;6.47;2.00;;;24.70;64.30;;;;;;5111681;28;20416;-68
2022/07/05 06:20:16;;;;;;;3.53;1.98;;;24.80;64.30;;;;;;5111085;28;20915;-65
2022/07/05 06:22:41;;;;;;;4.70;2.00;;;24.70;64.40;;;;;;5111697;28;20942;-69
2022/07/05 06:25:08;;;;;;;6.50;1.90;;;24.70;64.30;;;;;;5111661;28;20420;-69
2022/07/05 06:27:50;;;;;;;4.85;1.80;;;24.70;64.20;;;;;;5111618;28;20753;-64
2022/07/05 06:30:19;;;;;;;3.20;1.70;;;24.70;64.10;;;;;;5111199;28;20782;-69
2022/07/05 06:32:45;;;;;;;4.78;1.95;;;24.70;64.00;;;;;;5111631;28;20395;-64
2022/07/05 06:35:11;;;;;;;4.85;1.92;;;24.70;64.10;;;;;;5111603;28;20460;-64
2022/07/05 06:37:44;;;;;;;3.63;1.65;;;24.70;64.10;;;;;;5111474;28;20411;-67
2022/07/05 06:40:11;;;;;;;4.60;2.03;;;24.70;64.10;;;;;;5110983;28;20457;-64
2022/07/05 06:42:37;;;;;;;4.68;1.85;;;24.70;64.10;;;;;;5110167;28;20863;-64
2022/07/05 06:45:04;;;;;;;3.58;1.80;;;24.70;64.10;;;;;;5111584;28;20416;-70
2022/07/05 06:47:29;;;;;;;3.35;1.80;;;24.70;64.10;;;;;;5110276;28;20399;-68
2022/07/05 06:49:58;;;;;;;4.20;1.83;;;24.70;64.20;;;;;;5111358;28;20388;-68
2022/07/05 06:52:23;;;;;;;5.30;1.93;;;24.70;64.30;;;;;;5111003;28;21429;-67
2022/07/05 06:54:49;;;;;;;2.83;1.70;;;24.70;64.20;;;;;;5111666;28;20376;-70
2022/07/05 06:57:19;;;;;;;3.10;1.90;;;24.60;64.10;;;;;;5111453;28;20982;-64
2022/07/05 06:59:45;;;;;;;3.33;1.70;;;24.60;64.10;;;;;;5111342;28;20396;-64
2022/07/05 07:02:10;;;;;;;3.83;1.70;;;24.60;64.10;;;;;;5111015;28;20433;-65
2022/07/05 07:04:36;;;;;;;3.33;1.77;;;24.60;64.10;;;;;;5111092;28;20465;-68
2022/07/05 07:07:02;;;;;;;2.90;1.80;;;24.60;64.20;;;;;;5111392;28;20861;-69
2022/07/05 07:09:27;;;;;;;2.58;1.80;;;24.60;64.20;;;;;;5111374;28;20416;-64
2022/07/05 07:11:53;;;;;;;2.92;1.50;;;24.60;64.20;;;;;;5111053;28;20416;-69
2022/07/05 07:14:19;;;;;;;2.20;1.70;;;24.60;63.90;;;;;;5111166;28;20424;-64
2022/07/05 07:16:44;;;;;;;3.60;1.60;;;24.60;63.70;;;;;;5117539;28;20418;-67
2022/07/05 07:19:10;;;;;;;3.10;1.27;;;24.60;63.70;;;;;;5129433;28;20417;-65
2022/07/05 07:21:36;;;;;;;3.40;1.50;;;24.60;63.50;;;;;;5130408;28;20405;-68
2022/07/05 07:24:02;;;;;;;2.55;1.60;;;24.60;63.50;;;;;;5134660;27;20386;-69
2022/07/05 07:26:27;;;;;;;2.70;1.50;;;24.70;63.60;;;;;;5134938;27;20385;-64
2022/07/05 07:28:53;;;;;;;2.70;1.55;;;24.60;63.30;;;;;;5135512;27;20867;-68
2022/07/05 07:31:19;;;;;;;2.50;1.57;;;24.60;63.80;;;;;;5135352;27;20383;-70
2022/07/05 07:33:44;;;;;;;2.63;1.60;;;24.60;63.90;;;;;;5135371;27;20391;-64
2022/07/05 07:36:10;;;;;;;2.40;1.60;;;24.60;64.00;;;;;;5133602;27;20469;-69
2022/07/05 07:38:36;;;;;;;3.50;1.63;;;24.60;63.80;;;;;;5133997;27;20582;-63
2022/07/05 07:41:01;;;;;;;2.55;1.50;;;24.60;63.90;;;;;;5133986;27;20483;-64
2022/07/05 07:43:27;;;;;;;2.30;1.50;;;24.60;64.00;;;;;;5133634;27;20880;-69
2022/07/05 07:45:52;;;;;;;2.47;1.40;;;24.60;64.00;;;;;;5134751;27;20748;-70
2022/07/05 07:48:18;;;;;;;2.42;1.73;;;24.60;64.00;;;;;;5133160;27;20906;-69
2022/07/05 07:50:44;;;;;;;4.63;1.80;;;24.60;64.00;;;;;;5135003;27;20384;-64
2022/07/05 07:53:10;;;;;;;3.05;1.48;;;24.60;64.10;;;;;;5133745;27;20390;-68
2022/07/05 07:55:35;;;;;;;3.28;1.85;;;24.60;64.10;;;;;;5135107;27;20382;-67
2022/07/05 07:58:01;;;;;;;3.83;1.63;;;24.60;64.00;;;;;;5134942;27;20417;-64
2022/07/05 08:00:28;;;;;;;4.47;1.60;;;24.60;64.00;;;;;;5134528;27;20393;-64
2022/07/05 08:02:53;;;;;;;3.70;1.90;;;24.60;64.00;;;;;;5133638;27;20398;-65
2022/07/05 08:05:19;;;;;;;3.20;1.47;;;24.60;64.00;;;;;;5134717;27;20440;-63
2022/07/05 08:07:45;;;;;;;2.70;1.57;;;24.70;63.40;;;;;;5134729;27;20763;-69
2022/07/05 08:10:10;;;;;;;2.80;1.55;;;24.70;63.60;;;;;;5133568;27;20490;-70
2022/07/05 08:12:36;;;;;;;5.03;1.43;;;24.70;64.00;;;;;;5134936;27;20526;-68
2022/07/05 08:15:02;;;;;;;2.85;1.50;;;24.70;64.10;;;;;;5134922;27;20473;-68
2022/07/05 08:17:28;;;;;;;2.13;1.38;;;24.70;64.20;;;;;;5134475;27;20401;-68
2022/07/05 08:22:38;;;;;;;2.47;1.40;;;24.70;64.20;;;;;;5134158;27;20466;-70
2022/07/05 08:25:04;;;;;;;2.22;1.40;;;24.70;64.10;;;;;;5134415;27;20477;-69
2022/07/05 08:27:30;;;;;;;3.20;1.40;;;24.70;64.20;;;;;;5134388;27;20406;-65
2022/07/05 08:29:56;;;;;;;3.40;1.30;;;24.70;64.10;;;;;;5127687;27;20417;-68
2022/07/05 08:32:21;;;;;;;2.00;1.40;;;24.70;64.10;;;;;;5113199;28;20391;-68
2022/07/05 08:34:47;;;;;;;2.40;1.60;;;24.70;64.10;;;;;;5112755;28;20392;-69
2022/07/05 08:37:13;;;;;;;1.77;1.20;;;24.70;64.00;;;;;;5113662;28;20427;-64
2022/07/05 08:39:38;;;;;;;2.70;1.50;;;24.70;64.00;;;;;;5113433;28;20865;-64
2022/07/05 08:42:10;;;;;;;1.80;1.40;;;24.70;64.00;;;;;;5113567;28;20482;-63
2022/07/05 08:44:38;;;;;;;2.22;1.65;;;24.70;64.00;;;;;;5113241;28;20885;-64
2022/07/05 08:47:09;;;;;;;1.83;1.50;;;24.70;64.00;;;;;;5113540;28;20391;-65
2022/07/05 08:49:37;;;;;;;1.95;1.58;;;24.70;64.00;;;;;;5113283;28;20429;-69
2022/07/05 08:52:04;;;;;;;2.33;1.65;;;24.70;63.90;;;;;;5113382;28;20481;-64
2022/07/05 08:54:31;;;;;;;1.63;1.20;;;24.70;63.90;;;;;;5113108;28;20874;-69
2022/07/05 08:56:57;;;;;;;1.70;1.40;;;24.70;63.90;;;;;;5113222;28;20400;-69
2022/07/05 08:59:23;;;;;;;2.13;1.58;;;24.70;63.90;;;;;;5113212;28;20739;-68
2022/07/05 09:01:49;;;;;;;2.25;1.50;;;24.70;63.90;;;;;;5111853;28;20388;-70
2022/07/05 09:04:17;;;;;;;1.85;1.40;;;24.70;63.90;;;;;;5111147;28;20392;-64
2022/07/05 09:06:48;;;;;;;1.88;1.30;;;24.70;63.90;;;;;;5113176;28;20380;-64
2022/07/05 09:09:18;;;;;;;1.73;1.48;;;24.70;63.90;;;;;;5113206;28;20416;-69
2022/07/05 09:11:44;;;;;;;2.10;1.50;;;24.70;63.90;;;;;;5112904;28;20376;-66
2022/07/05 09:14:24;;;;;;;1.85;1.30;;;24.70;63.90;;;;;;5112955;28;20389;-65
2022/07/05 09:16:51;;;;;;;1.65;1.40;;;24.70;63.80;;;;;;5112843;28;20480;-67
2022/07/05 09:19:17;;;;;;;1.50;1.40;;;24.70;63.80;;;;;;5112889;27;20757;-68
2022/07/05 09:21:42;;;;;;;1.50;1.30;;;24.70;63.80;;;;;;5112757;28;20467;-64
2022/07/05 09:24:09;;;;;;;1.63;1.40;;;24.70;63.80;;;;;;5112636;28;20388;-69
2022/07/05 09:26:38;;;;;;;1.85;1.40;;;24.70;63.70;;;;;;5112287;28;20376;-70
2022/07/05 09:29:06;;;;;;;2.72;1.30;;;24.70;63.70;;;;;;5111339;28;20385;-66
2022/07/05 09:31:35;;;;;;;1.98;1.30;;;24.70;63.70;;;;;;5112497;28;20384;-67
2022/07/05 09:34:14;;;;;;;2.03;1.52;;;24.70;63.70;;;;;;5112700;28;20825;-69
2022/07/05 09:36:58;;;;;;;1.98;1.60;;;24.70;63.70;;;;;;5112284;28;20433;-69
2022/07/05 09:39:29;;;;;;;1.50;1.33;;;24.70;63.70;;;;;;5112426;28;20873;-64
2022/07/05 09:42:18;;;;;;;1.97;1.40;;;24.70;64.20;;;;;;5111406;28;20475;-70
2022/07/05 09:44:44;;;;;;;2.15;1.42;;;24.70;63.60;;;;;;5112705;28;20419;-70
2022/07/05 09:47:15;;;;;;;2.28;1.20;;;24.80;63.70;;;;;;5112246;28;20415;-68
2022/07/05 09:49:43;;;;;;;1.80;1.40;;;24.80;63.70;;;;;;5112111;28;20376;-68
2022/07/05 09:52:09;;;;;;;1.60;1.50;;;24.80;63.70;;;;;;5112114;28;20384;-68
2022/07/05 09:54:36;;;;;;;1.67;1.30;;;24.80;63.60;;;;;;5112115;28;20380;-64
2022/07/05 09:57:01;;;;;;;1.60;1.33;;;24.80;63.60;;;;;;5111889;28;20900;-69
2022/07/05 09:59:27;;;;;;;1.80;1.45;;;24.80;63.60;;;;;;5112010;28;20427;-66
2022/07/05 10:01:53;;;;;;;1.43;1.30;;;24.80;63.60;;;;;;5111868;28;20471;-71
2022/07/05 10:04:19;;;;;;;1.80;1.40;;;24.80;63.60;;;;;;5111317;28;20404;-64
2022/07/05 10:06:45;;;;;;;1.55;1.20;;;24.80;63.60;;;;;;5112120;28;20441;-70
2022/07/05 10:09:11;;;;;;;1.55;1.20;;;24.80;63.60;;;;;;5112004;28;20746;-69
2022/07/05 10:11:42;;;;;;;1.50;1.40;;;24.80;63.60;;;;;;5111811;28;20384;-69
2022/07/05 10:14:28;;;;;;;1.30;1.20;;;24.80;63.60;;;;;;5111814;28;20388;-64
2022/07/05 10:17:00;;;;;;;1.75;1.33;;;24.80;63.60;;;;;;5111296;28;20392;-64
2022/07/05 10:19:33;;;;;;;1.30;1.20;;;24.80;63.50;;;;;;5110364;28;20917;-69
2022/07/05 10:21:59;;;;;;;2.00;1.50;;;24.80;63.50;;;;;;5111918;28;20371;-70
2022/07/05 10:24:25;;;;;;;1.60;1.38;;;24.80;63.50;;;;;;5111255;28;20917;-66
2022/07/05 10:26:52;;;;;;;1.50;1.40;;;24.80;63.50;;;;;;5111770;28;20391;-68
2022/07/05 10:29:18;;;;;;;1.70;1.60;;;24.80;63.50;;;;;;5111454;28;20393;-70
2022/07/05 10:31:45;;;;;;;1.50;1.40;;;24.80;63.50;;;;;;5111755;28;20429;-70
2022/07/05 10:34:14;;;;;;;1.50;1.35;;;24.80;63.50;;;;;;5111648;28;20478;-66
2022/07/05 10:36:40;;;;;;;2.40;1.50;;;24.80;63.50;;;;;;5111296;28;20381;-69
2022/07/05 10:39:07;;;;;;;1.52;1.42;;;24.80;63.50;;;;;;5111821;28;20418;-69
2022/07/05 10:41:33;;;;;;;1.80;1.55;;;24.80;63.50;;;;;;5111805;28;20403;-64
2022/07/05 10:43:59;;;;;;;1.83;1.65;;;24.80;63.50;;;;;;5113081;28;20395;-70
2022/07/05 10:46:40;;;;;;;1.67;1.58;;;24.80;63.50;;;;;;5111406;28;20937;-70
2022/07/05 10:49:15;;;;;;;2.75;1.60;;;24.80;63.50;;;;;;5111845;28;20412;-65
2022/07/05 10:51:41;;;;;;;3.90;1.60;;;24.80;63.50;;;;;;5111758;28;20823;-64
2022/07/05 10:54:07;;;;;;;3.42;1.70;;;24.80;63.90;;;;;;5111696;28;20451;-64
2022/07/05 10:56:33;;;;;;;4.40;1.83;;;24.80;64.00;;;;;;5111414;28;20428;-68
2022/07/05 10:59:09;;;;;;;3.83;1.60;;;24.90;65.40;;;;;;5114708;28;20408;-68
2022/07/05 11:01:37;;;;;;;2.47;1.40;;;24.90;64.70;;;;;;5115658;28;20929;-64
2022/07/05 11:04:04;;;;;;;2.80;1.73;;;24.90;64.40;;;;;;5115656;27;20882;-67
2022/07/05 11:06:39;;;;;;;2.00;1.40;;;25.00;64.40;;;;;;5115244;28;20392;-65
2022/07/05 11:09:10;;;;;;;2.47;1.45;;;24.90;64.40;;;;;;5115760;28;20388;-64
2022/07/05 11:11:39;;;;;;;2.50;1.65;;;25.00;64.50;;;;;;5115614;28;20437;-70
2022/07/05 11:14:25;;;;;;;4.05;1.58;;;25.00;64.10;;;;;;5115050;28;20380;-70
2022/07/05 11:17:09;;;;;;;3.05;1.80;;;25.00;63.90;;;;;;5115305;28;20450;-68
2022/07/05 11:19:57;;;;;;;4.22;1.60;;;25.10;64.00;;;;;;5115252;28;20415;-70
2022/07/05 11:22:23;;;;;;;4.18;1.60;;;24.90;63.80;;;;;;5114689;28;20411;-70
2022/07/05 11:24:49;;;;;;;2.90;1.80;;;25.00;63.90;;;;;;5115361;28;20422;-69
2022/07/05 11:27:14;;;;;;;3.25;1.90;;;25.00;63.90;;;;;;5115184;28;20384;-69
2022/07/05 11:29:54;;;;;;;2.63;1.93;;;25.00;63.80;;;;;;5115203;28;20385;-64
2022/07/05 11:32:20;;;;;;;2.10;1.80;;;25.00;63.80;;;;;;5115035;27;20385;-70
2022/07/05 11:34:48;;;;;;;4.10;1.88;;;24.90;63.70;;;;;;5114828;28;20429;-64
2022/07/05 11:37:13;;;;;;;2.63;1.77;;;24.90;63.70;;;;;;5115018;28;20443;-64
2022/07/05 11:39:42;;;;;;;4.47;1.90;;;24.90;63.70;;;;;;5115056;28;20817;-66
2022/07/05 11:42:09;;;;;;;3.15;1.60;;;24.90;63.60;;;;;;5114999;28;20400;-69
2022/07/05 11:44:36;;;;;;;2.90;1.75;;;24.90;63.60;;;;;;5114506;28;20933;-66
2022/07/05 11:47:03;;;;;;;2.40;1.80;;;24.90;63.60;;;;;;5114973;28;20381;-69
2022/07/05 11:49:29;;;;;;;2.75;1.70;;;24.90;63.50;;;;;;5114685;28;20393;-69
2022/07/05 11:52:00;;;;;;;2.40;1.60;;;24.90;63.50;;;;;;5114757;28;20385;-68
2022/07/05 11:54:27;;;;;;;2.20;1.52;;;24.90;63.40;;;;;;5114511;28;20760;-69
2022/07/05 11:56:53;;;;;;;1.85;1.60;;;24.90;63.50;;;;;;5113578;28;20437;-68
2022/07/05 11:59:20;;;;;;;1.95;1.65;;;24.90;63.50;;;;;;5114505;28;20503;-64
2022/07/05 12:01:46;;;;;;;2.50;1.80;;;24.90;63.40;;;;;;5114574;28;20380;-64
2022/07/05 12:04:20;;;;;;;1.92;1.70;;;24.90;63.40;;;;;;5114394;28;20393;-69
2022/07/05 12:06:48;;;;;;;2.13;1.85;;;24.90;63.40;;;;;;5114278;28;20524;-67
2022/07/05 12:09:14;;;;;;;2.28;1.70;;;24.90;63.50;;;;;;5113090;28;20862;-66
2022/07/05 12:14:24;;;;;;;3.00;1.80;;;24.90;64.10;;;;;;5113841;28;20742;-63
2022/07/05 12:17:10;;;;;;;2.93;1.80;;;24.90;63.40;;;;;;5114128;28;20453;-68
2022/07/05 12:19:35;;;;;;;3.92;1.70;;;24.90;63.40;;;;;;5105836;28;20404;-69
2022/07/05 12:22:01;;;;;;;3.83;1.95;;;24.90;63.50;;;;;;5109693;28;20829;-68
2022/07/05 12:24:27;;;;;;;2.63;1.73;;;25.00;63.40;;;;;;5108640;28;20407;-64
2022/07/05 12:26:53;;;;;;;3.17;1.97;;;25.00;63.40;;;;;;5109735;28;20387;-68
2022/07/05 12:29:19;;;;;;;3.10;1.80;;;25.00;63.30;;;;;;5108235;28;20458;-67
2022/07/05 12:32:02;;;;;;;2.30;1.70;;;25.00;63.30;;;;;;5109523;28;20885;-67
2022/07/05 12:34:29;;;;;;;3.08;1.85;;;25.00;63.40;;;;;;5109050;28;20434;-68
2022/07/05 12:36:55;;;;;;;3.28;1.70;;;25.00;63.40;;;;;;5109955;28;20416;-63
2022/07/05 12:39:21;;;;;;;3.85;1.90;;;25.00;63.40;;;;;;5108858;27;20455;-68
2022/07/05 12:41:47;;;;;;;2.83;2.00;;;25.00;63.30;;;;;;5109276;28;20384;-64
2022/07/05 12:44:17;;;;;;;2.90;2.10;;;25.00;63.30;;;;;;5107706;28;20901;-70
2022/07/05 12:46:44;;;;;;;3.57;1.97;;;25.00;63.30;;;;;;5108730;28;20380;-64
2022/07/05 12:49:10;;;;;;;2.78;1.95;;;25.00;63.30;;;;;;5104850;28;20429;-64
2022/07/05 12:51:40;;;;;;;3.65;2.00;;;25.00;63.30;;;;;;5106976;28;20396;-65
2022/07/05 12:59:42;;;;;;;2.80;2.00;;;25.00;63.30;;;;;;5107272;28;20411;-63